createdAt,value
2019-04-06T00:01:45.410Z,41.87
2019-04-06T00:04:53.039Z,42.40
2019-04-06T00:07:58.315Z,39.60
2019-04-06T00:11:03.685Z,40.87
2019-04-06T00:14:08.974Z,39.30
2019-04-06T00:17:14.135Z,37.97
2019-04-06T00:20:19.403Z,43.20
2019-04-06T00:23:24.658Z,40.83
2019-04-06T00:26:30.005Z,41.40
2019-04-06T00:29:35.323Z,40.20
2019-04-06T00:32:54.028Z,39.90
2019-04-06T00:35:59.280Z,41.00
2019-04-06T00:39:05.920Z,42.27
2019-04-06T00:42:11.147Z,39.57
2019-04-06T00:45:16.643Z,41.60
2019-04-06T00:48:21.908Z,40.50
2019-04-06T00:51:27.174Z,41.10
2019-04-06T00:54:32.453Z,42.03
2019-04-06T00:57:37.776Z,41.40
2019-04-06T01:00:44.084Z,43.73
2019-04-06T01:03:49.445Z,40.23
2019-04-06T01:06:54.777Z,38.53
2019-04-06T01:10:00.020Z,39.50
2019-04-06T01:13:05.286Z,41.30
2019-04-06T01:16:10.554Z,41.63
2019-04-06T01:19:15.788Z,41.37
2019-04-06T01:22:21.091Z,40.47
2019-04-06T01:25:27.449Z,41.73
2019-04-06T01:28:33.693Z,41.00
2019-04-06T01:31:41.162Z,43.43
2019-04-06T01:34:46.458Z,42.07
2019-04-06T01:37:51.787Z,42.47
2019-04-06T01:40:57.048Z,46.57
2019-04-06T01:44:02.342Z,45.27
2019-04-06T01:47:07.644Z,42.93
2019-04-06T01:50:13.098Z,43.00
2019-04-06T01:53:18.354Z,43.33
2019-04-06T01:56:23.602Z,42.43
2019-04-06T01:59:28.887Z,43.00
2019-04-06T02:02:36.495Z,44.97
2019-04-06T02:05:41.812Z,43.27
2019-04-06T02:08:48.138Z,43.33
2019-04-06T02:11:53.605Z,42.93
2019-04-06T02:14:58.897Z,42.07
2019-04-06T02:18:06.504Z,42.60
2019-04-06T02:21:11.747Z,43.23
2019-04-06T02:24:17.084Z,44.80
2019-04-06T02:27:22.383Z,42.50
2019-04-06T02:30:37.424Z,44.30
2019-04-06T02:34:16.879Z,45.90
2019-04-06T02:37:40.000Z,46.57
2019-04-06T02:41:04.189Z,45.07
2019-04-06T02:44:09.644Z,44.63
2019-04-06T02:47:14.931Z,45.03
2019-04-06T02:50:20.236Z,44.40
2019-04-06T02:53:25.511Z,44.50
2019-04-06T02:56:45.031Z,44.17
2019-04-06T02:59:38.044Z,43.60
2019-04-06T03:02:43.393Z,43.60
2019-04-06T03:05:48.818Z,41.80
2019-04-06T03:08:54.100Z,45.27
2019-04-06T03:11:59.387Z,41.63
2019-04-06T03:15:05.138Z,44.83
2019-04-06T03:18:10.501Z,45.17
2019-04-06T03:21:15.801Z,42.03
2019-04-06T03:24:21.060Z,46.10
2019-04-06T03:27:26.434Z,43.90
2019-04-06T03:30:31.708Z,41.70
2019-04-06T03:33:36.944Z,38.23
2019-04-06T03:36:42.278Z,43.93
2019-04-06T03:39:47.498Z,41.40
2019-04-06T03:42:54.052Z,43.57
2019-04-06T03:45:59.409Z,44.00
2019-04-06T03:49:04.814Z,41.10
2019-04-06T03:52:10.200Z,42.27
2019-04-06T03:55:15.629Z,40.40
2019-04-06T03:58:20.981Z,43.53
2019-04-06T04:01:26.385Z,39.33
2019-04-06T04:04:31.769Z,40.40
2019-04-06T04:07:37.069Z,41.20
2019-04-06T04:10:42.498Z,43.10
2019-04-06T04:13:47.794Z,42.30
2019-04-06T04:16:53.124Z,39.77
2019-04-06T04:19:58.564Z,41.80
2019-04-06T04:23:03.823Z,41.60
2019-04-06T04:26:09.091Z,40.63
2019-04-06T04:29:14.394Z,37.33
2019-04-06T04:32:19.648Z,38.80
2019-04-06T04:35:25.999Z,38.57
2019-04-06T04:38:31.317Z,37.83
2019-04-06T04:41:39.244Z,39.50
2019-04-06T04:44:43.676Z,37.90
2019-04-06T04:47:50.346Z,41.30
2019-04-06T04:50:55.841Z,40.63
2019-04-06T04:54:01.164Z,40.47
2019-04-06T04:57:06.694Z,39.97
2019-04-06T05:00:12.232Z,41.40
2019-04-06T05:03:17.868Z,41.07
2019-04-06T05:06:23.189Z,39.70
2019-04-06T05:09:28.624Z,41.07
2019-04-06T05:12:34.333Z,45.67
2019-04-06T05:16:12.783Z,44.30
2019-04-06T05:19:18.152Z,47.47
2019-04-06T05:22:23.628Z,48.80
2019-04-06T05:25:28.923Z,50.20
2019-04-06T05:28:34.217Z,47.87
2019-04-06T05:31:39.747Z,48.67
2019-04-06T05:34:45.052Z,46.67
2019-04-06T05:37:50.309Z,49.30
2019-04-06T05:40:55.572Z,47.70
2019-04-06T05:44:00.880Z,48.30
2019-04-06T05:47:09.035Z,46.83
2019-04-06T05:50:15.971Z,46.17
2019-04-06T05:53:21.825Z,43.63
2019-04-06T05:56:27.362Z,44.63
2019-04-06T05:59:35.096Z,45.77
2019-04-06T06:02:41.767Z,44.20
2019-04-06T06:05:48.488Z,42.63
2019-04-06T06:08:53.821Z,43.67
2019-04-06T06:11:59.246Z,41.10
2019-04-06T06:15:05.008Z,43.57
2019-04-06T06:18:10.404Z,42.57
2019-04-06T06:21:17.764Z,43.97
2019-04-06T06:24:23.260Z,42.07
2019-04-06T06:27:28.553Z,43.93
2019-04-06T06:30:35.666Z,44.70
2019-04-06T06:33:42.046Z,43.43
2019-04-06T06:36:48.073Z,42.07
2019-04-06T06:39:53.521Z,45.40
2019-04-06T06:42:58.893Z,42.70
2019-04-06T06:46:04.484Z,41.20
2019-04-06T06:49:09.866Z,41.67
2019-04-06T06:52:15.110Z,42.60
2019-04-06T06:55:20.415Z,43.00
2019-04-06T06:58:26.262Z,41.00
2019-04-06T07:01:31.727Z,41.27
2019-04-06T07:04:36.996Z,42.57
2019-04-06T07:07:42.396Z,41.57
2019-04-06T07:10:47.712Z,43.13
2019-04-06T07:13:53.006Z,43.90
2019-04-06T07:16:58.287Z,42.43
2019-04-06T07:20:03.887Z,43.53
2019-04-06T07:23:10.151Z,39.00
2019-04-06T07:26:15.473Z,41.27
2019-04-06T07:29:20.785Z,41.87
2019-04-06T07:32:28.071Z,42.43
2019-04-06T07:35:33.357Z,41.60
2019-04-06T07:38:38.727Z,39.10
2019-04-06T07:41:44.002Z,40.93
2019-04-06T07:44:49.310Z,40.87
2019-04-06T07:47:56.188Z,40.50
2019-04-06T07:51:01.547Z,38.93
2019-04-06T07:54:06.826Z,40.13
2019-04-06T07:57:12.152Z,39.90
2019-04-06T08:00:17.550Z,40.00
2019-04-06T08:03:22.826Z,40.00
2019-04-06T08:06:28.125Z,39.30
2019-04-06T08:09:33.432Z,37.97
2019-04-06T08:12:38.746Z,40.50
2019-04-06T08:15:44.174Z,42.60
2019-04-06T08:18:49.436Z,44.47
2019-04-06T08:21:54.760Z,43.80
2019-04-06T08:25:00.044Z,44.53
2019-04-06T08:28:05.324Z,43.37
2019-04-06T08:31:12.209Z,44.87
2019-04-06T08:34:19.092Z,44.00
2019-04-06T08:37:25.305Z,43.13
2019-04-06T08:40:31.616Z,44.27
2019-04-06T08:43:37.034Z,44.83
2019-04-06T08:46:42.451Z,44.97
2019-04-06T08:49:48.033Z,42.20
2019-04-06T08:52:53.588Z,43.30
2019-04-06T08:55:58.962Z,42.70
2019-04-06T08:59:11.283Z,44.30
2019-04-06T09:02:11.465Z,40.97
2019-04-06T09:05:16.840Z,40.67
2019-04-06T09:08:22.263Z,42.57
2019-04-06T09:11:27.576Z,41.40
2019-04-06T09:14:34.493Z,40.27
2019-04-06T09:17:41.471Z,40.67
2019-04-06T09:20:46.885Z,39.40
2019-04-06T09:23:52.265Z,40.20
2019-04-06T09:26:57.584Z,41.20
2019-04-06T09:30:03.066Z,40.63
2019-04-06T09:33:08.691Z,40.43
2019-04-06T09:36:15.515Z,42.90
2019-04-06T09:39:20.930Z,41.10
2019-04-06T09:42:26.307Z,43.67
2019-04-06T09:45:44.813Z,41.20
2019-04-06T09:49:09.340Z,41.17
2019-04-06T09:52:31.583Z,40.73
2019-04-06T09:55:47.300Z,41.37
2019-04-06T09:59:06.772Z,42.03
2019-04-06T10:02:21.476Z,41.90
2019-04-06T10:05:57.879Z,41.10
2019-04-06T10:09:28.342Z,41.90
2019-04-06T10:12:51.142Z,42.00
2019-04-06T10:16:13.097Z,40.97
2019-04-06T10:19:35.439Z,40.37
2019-04-06T10:22:52.493Z,40.50
2019-04-06T10:26:16.810Z,40.30
2019-04-06T10:29:50.443Z,39.33
2019-04-06T10:33:06.009Z,38.50
2019-04-06T10:36:32.924Z,37.30
2019-04-06T10:39:50.309Z,41.00
2019-04-06T10:43:16.296Z,38.13
2019-04-06T10:46:30.710Z,37.47
2019-04-06T10:49:46.410Z,34.03
2019-04-06T10:53:13.619Z,33.23
2019-04-06T10:56:35.146Z,35.80
2019-04-06T11:00:02.566Z,33.70
2019-04-06T11:03:27.947Z,33.60
2019-04-06T11:06:52.313Z,30.90
2019-04-06T11:10:25.291Z,31.43
2019-04-06T11:13:45.055Z,31.70
2019-04-06T11:17:06.710Z,32.87
2019-04-06T11:20:34.240Z,32.40
2019-04-06T11:23:58.661Z,33.00
2019-04-06T11:27:11.219Z,33.37
2019-04-06T11:30:38.935Z,31.93
2019-04-06T11:34:07.193Z,30.40
2019-04-06T11:37:19.694Z,30.90
2019-04-06T11:40:50.293Z,28.83
2019-04-06T11:44:26.949Z,28.90
2019-04-06T11:47:49.778Z,29.00
2019-04-06T11:51:17.101Z,29.23
2019-04-06T11:54:47.844Z,28.17
2019-04-06T11:58:22.464Z,27.73
2019-04-06T12:01:37.305Z,31.33
2019-04-06T12:05:00.275Z,27.67
2019-04-06T12:08:33.627Z,27.10
2019-04-06T12:12:01.043Z,26.20
2019-04-06T12:15:21.033Z,25.80
2019-04-06T12:18:45.181Z,26.00
2019-04-06T12:22:21.275Z,26.70
2019-04-06T12:25:45.994Z,33.33
2019-04-06T12:29:17.044Z,32.93
2019-04-06T12:32:47.488Z,32.77
2019-04-06T12:36:05.775Z,35.90
2019-04-06T12:39:18.269Z,33.23
2019-04-06T12:42:37.623Z,33.97
2019-04-06T12:46:00.649Z,30.00
2019-04-06T12:49:31.136Z,30.47
2019-04-06T12:53:10.735Z,30.70
2019-04-06T12:56:40.909Z,29.37
2019-04-06T12:59:57.024Z,30.63
2019-04-06T13:03:27.314Z,31.30
2019-04-06T13:07:06.715Z,31.20
2019-04-06T13:10:37.010Z,28.83
2019-04-06T13:14:01.294Z,31.33
2019-04-06T13:17:33.714Z,31.57
2019-04-06T13:20:46.519Z,31.37
2019-04-06T13:24:06.438Z,30.33
2019-04-06T13:27:18.022Z,30.10
2019-04-06T13:30:39.768Z,31.20
2019-04-06T13:34:00.775Z,29.90
2019-04-06T13:37:13.318Z,30.30
2019-04-06T13:40:37.523Z,30.80
2019-04-06T13:44:04.892Z,30.10
2019-04-06T13:47:29.183Z,29.37
2019-04-06T13:50:53.706Z,26.30
2019-04-06T13:54:10.210Z,26.83
2019-04-06T13:57:34.744Z,25.90
2019-04-06T14:00:58.608Z,27.83
2019-04-06T14:04:20.893Z,26.97
2019-04-06T14:07:45.128Z,27.40
2019-04-06T14:11:06.960Z,27.03
2019-04-06T14:14:19.358Z,26.50
2019-04-06T14:18:01.708Z,26.20
2019-04-06T14:21:44.049Z,25.50
2019-04-06T14:25:10.994Z,26.27
2019-04-06T14:28:33.623Z,27.00
2019-04-06T14:31:54.264Z,26.17
2019-04-06T14:35:18.463Z,26.30
2019-04-06T14:38:48.471Z,25.23
2019-04-06T14:42:11.582Z,25.13
2019-04-06T14:45:44.969Z,24.53
2019-04-06T14:49:14.325Z,24.85
2019-04-06T14:52:27.513Z,25.37
2019-04-06T14:55:51.825Z,24.70
2019-04-06T14:59:19.155Z,25.30
2019-04-06T15:02:49.503Z,24.87
2019-04-06T15:06:09.488Z,24.53
2019-04-06T15:09:35.722Z,23.20
2019-04-06T15:13:06.839Z,23.00
2019-04-06T15:16:30.889Z,21.63
2019-04-06T15:19:50.794Z,22.90
2019-04-06T15:23:15.155Z,22.83
2019-04-06T15:26:45.489Z,23.37
2019-04-06T15:29:58.903Z,24.80
2019-04-06T15:33:22.917Z,24.10
2019-04-06T15:36:56.057Z,24.30
2019-04-06T15:40:26.362Z,23.70
2019-04-06T15:43:50.669Z,23.30
2019-04-06T15:47:21.987Z,23.73
2019-04-06T15:50:43.457Z,22.67
2019-04-06T15:54:16.867Z,21.90
2019-04-06T15:57:31.128Z,23.40
2019-04-06T16:00:55.312Z,23.47
2019-04-06T16:04:18.434Z,24.73
2019-04-06T16:07:42.473Z,26.37
2019-04-06T16:11:06.061Z,26.80
2019-04-06T16:14:29.475Z,26.57
2019-04-06T16:17:43.385Z,26.30
2019-04-06T16:21:07.571Z,26.40
2019-04-06T16:24:41.600Z,25.53
2019-04-06T16:28:11.945Z,26.03
2019-04-06T16:31:29.700Z,23.67
2019-04-06T16:34:41.297Z,25.07
2019-04-06T16:38:05.365Z,24.57
2019-04-06T16:41:37.892Z,26.00
2019-04-06T16:44:57.939Z,25.47
2019-04-06T16:48:37.870Z,24.60
2019-04-06T16:51:52.350Z,24.93
2019-04-06T16:55:25.298Z,26.40
2019-04-06T16:58:49.176Z,23.73
2019-04-06T17:02:22.886Z,24.60
2019-04-06T17:05:35.003Z,25.40
2019-04-06T17:09:02.489Z,24.20
2019-04-06T17:12:27.545Z,23.53
2019-04-06T17:15:55.014Z,23.33
2019-04-06T17:19:14.386Z,24.90
2019-04-06T17:22:50.762Z,23.67
2019-04-06T17:26:30.685Z,24.80
2019-04-06T17:30:04.129Z,24.37
2019-04-06T17:33:16.515Z,24.47
2019-04-06T17:36:29.963Z,25.10
2019-04-06T17:40:00.174Z,24.20
2019-04-06T17:43:27.413Z,26.73
2019-04-06T17:46:58.918Z,25.67
2019-04-06T17:50:27.992Z,27.03
2019-04-06T17:53:51.316Z,26.90
2019-04-06T17:57:18.755Z,26.27
2019-04-06T18:00:42.725Z,25.40
2019-04-06T18:03:59.174Z,26.73
2019-04-06T18:07:31.512Z,27.03
2019-04-06T18:10:54.743Z,28.40
2019-04-06T18:14:00.255Z,27.10
2019-04-06T18:17:06.662Z,28.23
2019-04-06T18:20:14.221Z,27.60
2019-04-06T18:23:19.723Z,28.40
2019-04-06T18:26:28.487Z,30.53
2019-04-06T18:29:34.606Z,28.40
2019-04-06T18:33:03.302Z,31.50
2019-04-06T18:36:09.118Z,31.53
2019-04-06T18:39:14.479Z,28.70
2019-04-06T18:42:19.780Z,30.40
2019-04-06T18:45:26.431Z,30.10
2019-04-06T18:48:31.891Z,29.60
2019-04-06T18:51:38.578Z,30.57
2019-04-06T18:54:43.937Z,29.57
2019-04-06T18:57:49.408Z,29.07
2019-04-06T19:00:55.141Z,30.10
2019-04-06T19:04:00.557Z,28.87
2019-04-06T19:07:06.516Z,28.20
2019-04-06T19:10:12.057Z,30.33
2019-04-06T19:13:17.346Z,29.20
2019-04-06T19:16:22.870Z,30.53
2019-04-06T19:19:28.449Z,30.73
2019-04-06T19:22:34.319Z,30.03
2019-04-06T19:25:39.423Z,30.63
2019-04-06T19:28:44.758Z,31.20
2019-04-06T19:31:50.354Z,30.77
2019-04-06T19:34:56.192Z,30.40
2019-04-06T19:38:02.009Z,30.37
2019-04-06T19:41:07.593Z,30.50
2019-04-06T19:44:13.399Z,32.93
2019-04-06T19:47:18.916Z,31.40
2019-04-06T19:50:24.840Z,30.43
2019-04-06T19:53:30.373Z,33.00
2019-04-06T19:56:35.682Z,31.60
2019-04-06T19:59:41.023Z,31.17
2019-04-06T20:02:46.309Z,32.47
2019-04-06T20:05:52.333Z,31.23
2019-04-06T20:08:57.909Z,32.63
2019-04-06T20:12:07.334Z,31.60
2019-04-06T20:15:12.133Z,33.30
2019-04-06T20:18:17.425Z,33.30
2019-04-06T20:21:22.913Z,34.03
2019-04-06T20:24:28.388Z,34.60
2019-04-06T20:27:34.269Z,33.97
2019-04-06T20:30:39.842Z,35.20
2019-04-06T20:33:50.899Z,35.37
2019-04-06T20:36:52.400Z,35.57
2019-04-06T20:39:57.728Z,35.40
2019-04-06T20:43:05.226Z,36.80
2019-04-06T20:46:10.729Z,36.10
2019-04-06T20:49:16.475Z,34.83
2019-04-06T20:52:21.929Z,33.57
2019-04-06T20:55:28.087Z,35.30
2019-04-06T20:58:33.691Z,35.47
2019-04-06T21:01:39.123Z,34.47
2019-04-06T21:04:44.510Z,34.80
2019-04-06T21:07:49.937Z,36.40
2019-04-06T21:10:55.380Z,36.37
2019-04-06T21:14:00.698Z,35.47
2019-04-06T21:17:07.022Z,39.17
2019-04-06T21:20:12.999Z,36.23
2019-04-06T21:23:18.751Z,35.50
2019-04-06T21:26:24.027Z,35.63
2019-04-06T21:29:30.629Z,36.00
2019-04-06T21:32:36.095Z,36.10
2019-04-06T21:35:41.467Z,37.53
2019-04-06T21:38:46.738Z,37.03
2019-04-06T21:41:53.124Z,36.27
2019-04-06T21:44:58.622Z,35.40
2019-04-06T21:48:06.960Z,36.20
2019-04-06T21:51:12.453Z,37.00
2019-04-06T21:54:17.686Z,35.57
2019-04-06T21:57:22.993Z,35.40
2019-04-06T22:00:41.930Z,35.10
2019-04-06T22:03:47.712Z,33.97
2019-04-06T22:06:52.971Z,32.70
2019-04-06T22:09:58.401Z,35.30
2019-04-06T22:13:04.995Z,34.30
2019-04-06T22:16:11.813Z,37.07
2019-04-06T22:19:17.123Z,36.53
2019-04-06T22:22:22.383Z,34.87
2019-04-06T22:25:29.010Z,36.50
2019-04-06T22:28:34.940Z,34.97
2019-04-06T22:31:41.582Z,34.60
2019-04-06T22:34:46.862Z,33.37
2019-04-06T22:37:54.395Z,35.83
2019-04-06T22:40:59.302Z,35.53
2019-04-06T22:44:05.666Z,35.90
2019-04-06T22:47:11.072Z,35.53
2019-04-06T22:50:16.474Z,33.87
2019-04-06T22:53:21.757Z,36.13
2019-04-06T22:56:27.188Z,35.27
2019-04-06T22:59:32.933Z,35.57
2019-04-06T23:02:48.703Z,35.57
2019-04-06T23:05:57.333Z,33.40
2019-04-06T23:09:03.237Z,37.30
2019-04-06T23:12:08.772Z,36.20
2019-04-06T23:15:15.545Z,36.00
2019-04-06T23:18:20.935Z,38.07
2019-04-06T23:21:26.800Z,35.57
2019-04-06T23:24:32.959Z,34.87
2019-04-06T23:27:38.682Z,35.73
2019-04-06T23:30:44.161Z,35.87
2019-04-06T23:33:49.401Z,36.97
2019-04-06T23:36:54.700Z,37.63
2019-04-06T23:40:00.644Z,35.27
2019-04-06T23:43:06.152Z,36.80
2019-04-06T23:46:13.017Z,36.73
2019-04-06T23:49:19.594Z,38.70
2019-04-06T23:52:26.313Z,37.93
2019-04-06T23:55:31.883Z,36.17
2019-04-06T23:58:37.509Z,39.50
